Time;durP1;ratioP1;P1;durP2;ratioP2;P2;SDS_P1;SDS_P2;PMS_P1;PMS_P2;Temp;Humidity;BMP_temperature;BMP_pressure;BME280_temperature;BME280_humidity;BME280_pressure;Samples;Min_cycle;Max_cycle;Signal;HPM_P1;HPM_P2
2024/03/28 00:00:06;;;;;;;20.70;13.90;;;;;;;-147.86;100.00;29386.50;105850;1253;61248;-47
2024/03/28 00:02:34;;;;;;;21.90;13.50;;;;;;;-147.86;100.00;28667.79;105836;1254;73254;-45
2024/03/28 00:05:01;;;;;;;19.00;12.50;;;;;;;-147.86;100.00;28546.97;105822;1254;65900;-49
2024/03/28 00:07:28;;;;;;;18.40;13.00;;;;;;;-147.86;100.00;28067.23;105890;1252;72680;-45
2024/03/28 00:09:55;;;;;;;17.00;12.40;;;;;;;-147.86;100.00;27850.68;105819;1257;61883;-46
2024/03/28 00:12:21;;;;;;;18.70;12.40;;;;;;;-147.86;100.00;27546.48;105820;1254;61229;-45
2024/03/28 00:14:48;;;;;;;17.60;13.30;;;;;;;-147.86;100.00;27158.41;105881;1254;74694;-45
2024/03/28 00:17:15;;;;;;;21.70;14.10;;;;;;;-147.86;100.00;26611.27;105837;1253;65494;-46
2024/03/28 00:19:42;;;;;;;18.80;12.60;;;;;;;-147.86;100.00;26120.01;105880;1254;71520;-45
2024/03/28 00:22:09;;;;;;;15.10;12.00;;;;;;;-147.86;100.00;25700.91;105883;1257;61914;-48
2024/03/28 00:24:36;;;;;;;16.10;12.10;;;;;;;-147.86;100.00;25261.16;105878;1254;61280;-48
2024/03/28 00:27:03;;;;;;;16.40;12.40;;;;;;;-147.86;100.00;24784.47;105883;1256;75190;-47
2024/03/28 00:29:30;;;;;;;20.20;12.60;;;;;;;-147.86;100.00;24418.48;105855;1256;64888;-47
2024/03/28 00:31:56;;;;;;;18.20;13.80;;;;;;;-147.86;100.00;24129.70;105850;1257;72384;-47
2024/03/28 00:34:23;;;;;;;21.10;13.70;;;;;;;-147.86;100.00;23852.62;105854;1253;61239;-48
2024/03/28 00:36:50;;;;;;;18.80;13.00;;;;;;;-147.86;100.00;23428.67;105844;1257;61210;-48
2024/03/28 00:39:16;;;;;;;20.30;13.30;;;;;;;-147.86;100.00;22974.39;105831;1257;74314;-45
2024/03/28 00:41:43;;;;;;;18.70;13.90;;;;;;;-147.86;100.00;22550.94;105878;1253;65783;-50
2024/03/28 00:44:10;;;;;;;16.10;12.00;;;;;;;-147.86;100.00;21984.96;105854;1254;72562;-47
2024/03/28 00:46:38;;;;;;;21.80;13.60;;;;;;;-147.86;100.00;21489.20;105853;1254;61215;-46
2024/03/28 00:49:04;;;;;;;16.70;12.70;;;;;;;-147.86;100.00;21142.18;105858;1253;61226;-46
2024/03/28 00:51:31;;;;;;;17.70;12.90;;;;;;;-147.86;100.00;20748.09;105801;1256;74324;-43
2024/03/28 00:53:58;;;;;;;19.70;13.30;;;;;;;-147.86;100.00;20476.68;105836;1257;65301;-47
2024/03/28 00:56:25;;;;;;;16.90;12.30;;;;;;;-147.86;100.00;20290.53;105898;1254;72455;-49
2024/03/28 00:58:52;;;;;;;18.50;13.40;;;;;;;-147.86;100.00;20127.76;105881;1254;61861;-50
2024/03/28 01:01:19;;;;;;;19.90;13.80;;;;;;;-147.86;100.00;20040.93;105751;1254;61283;-52
2024/03/28 01:03:45;;;;;;;18.10;13.70;;;;;;;-147.86;100.00;20009.02;105541;1257;74702;-47
2024/03/28 01:06:12;;;;;;;18.20;12.50;;;;;;;-147.86;100.00;20084.17;105658;1257;64453;-49
2024/03/28 01:08:39;;;;;;;17.60;12.50;;;;;;;-147.86;100.00;20357.11;105664;1254;72469;-49
2024/03/28 01:11:06;;;;;;;17.70;12.90;;;;;;;-147.86;100.00;21032.24;105697;1253;61912;-46
2024/03/28 01:13:33;;;;;;;19.20;14.00;;;;;;;-147.86;100.00;21820.45;105786;1254;61148;-49
2024/03/28 01:16:00;;;;;;;22.20;14.40;;;;;;;-147.86;100.00;22443.23;105740;1256;74552;-50
2024/03/28 01:18:26;;;;;;;19.60;13.60;;;;;;;-147.86;100.00;23393.31;105757;1254;64470;-47
2024/03/28 01:20:53;;;;;;;22.00;14.70;;;;;;;-147.86;100.00;24754.43;105695;1257;72451;-50
2024/03/28 01:23:20;;;;;;;19.10;13.50;;;;;;;-147.86;100.00;25675.47;105710;1254;61793;-49
2024/03/28 01:25:47;;;;;;;24.10;14.80;;;;;;;-147.86;100.00;26628.32;105660;1254;61512;-46
2024/03/28 01:28:14;;;;;;;22.90;15.50;;;;;;;-147.86;100.00;27539.68;105926;1253;74764;-46
2024/03/28 01:30:41;;;;;;;20.10;14.60;;;;;;;-147.86;100.00;28470.73;105898;1258;64689;-47
2024/03/28 01:33:08;;;;;;;22.60;15.10;;;;;;;-147.86;100.00;29552.25;105854;1254;72400;-46
2024/03/28 01:35:36;;;;;;;24.90;16.70;;;;;;;-147.86;100.00;30584.11;105813;1254;61783;-46
2024/03/28 01:38:03;;;;;;;26.20;16.20;;;;;;;-147.86;100.00;31636.56;105911;1256;61307;-45
2024/03/28 01:40:30;;;;;;;24.60;15.10;;;;;;;-147.86;100.00;32498.31;105928;1257;74665;-45
2024/03/28 01:43:05;;;;;;;20.60;14.50;;;;;;;-147.86;100.00;33174.34;105917;1254;65384;-49
2024/03/28 01:45:32;;;;;;;23.10;14.90;;;;;;;-147.86;100.00;34011.85;105911;1254;73626;-49
2024/03/28 01:47:58;;;;;;;19.30;13.10;;;;;;;-147.86;100.00;34352.88;105676;1257;61937;-46
2024/03/28 01:50:30;;;;;;;22.90;14.80;;;;;;;-147.86;100.00;34777.59;105829;1257;61295;-45
2024/03/28 01:52:57;;;;;;;22.20;14.60;;;;;;;-147.86;100.00;35124.59;105921;1256;74506;-45
2024/03/28 01:55:24;;;;;;;26.70;14.90;;;;;;;-147.86;100.00;35240.64;105892;1254;64530;-49
2024/03/28 01:57:51;;;;;;;26.70;14.70;;;;;;;-147.86;100.00;35449.71;105925;1255;72585;-50
2024/03/28 02:00:18;;;;;;;21.00;15.00;;;;;;;-147.86;100.00;35611.51;105718;1254;61923;-45
2024/03/28 02:02:45;;;;;;;18.30;13.40;;;;;;;-147.86;100.00;35772.92;105680;1253;61254;-48
2024/03/28 02:05:12;;;;;;;21.90;14.00;;;;;;;-147.86;100.00;35856.16;105723;1257;74590;-47
2024/03/28 02:07:39;;;;;;;19.10;14.00;;;;;;;-147.86;100.00;36282.98;105610;1257;65436;-47
2024/03/28 02:10:06;;;;;;;23.50;14.30;;;;;;;-147.86;100.00;36643.79;105686;1253;72273;-46
2024/03/28 02:12:34;;;;;;;24.60;14.60;;;;;;;-147.86;100.00;36956.15;105681;1253;61177;-46
2024/03/28 02:15:02;;;;;;;26.20;15.90;;;;;;;-147.86;100.00;37448.00;105729;1257;61164;-45
2024/03/28 02:17:29;;;;;;;20.30;14.90;;;;;;;-147.86;100.00;37838.24;105697;1256;74563;-46
2024/03/28 02:19:56;;;;;;;23.10;15.10;;;;;;;-147.86;100.00;38097.90;105717;1254;64639;-47
2024/03/28 02:22:22;;;;;;;23.60;14.60;;;;;;;-147.86;100.00;38406.07;105595;1253;72799;-50
2024/03/28 02:24:49;;;;;;;19.30;14.50;;;;;;;-147.86;100.00;38667.73;105480;1253;61971;-47
2024/03/28 02:27:16;;;;;;;26.00;14.50;;;;;;;-147.86;100.00;38910.23;105654;1259;61549;-47
2024/03/28 02:29:43;;;;;;;19.50;14.30;;;;;;;-147.86;100.00;39119.89;105914;1253;74470;-49
2024/03/28 02:32:09;;;;;;;20.00;14.40;;;;;;;-147.86;100.00;39351.47;105876;1255;63994;-51
2024/03/28 02:34:36;;;;;;;23.50;15.30;;;;;;;-147.86;100.00;39593.23;105861;1254;71463;-48
2024/03/28 02:37:03;;;;;;;22.80;14.80;;;;;;;-147.86;100.00;39872.18;105935;1254;61247;-46
2024/03/28 02:39:30;;;;;;;21.30;15.40;;;;;;;-147.86;100.00;40066.24;105846;1254;61205;-43
2024/03/28 02:41:57;;;;;;;26.10;15.80;;;;;;;-147.86;100.00;40168.76;105885;1254;74503;-45
2024/03/28 02:44:24;;;;;;;19.20;14.20;;;;;;;-147.86;100.00;40200.06;105871;1254;65544;-43
2024/03/28 02:46:51;;;;;;;24.30;14.90;;;;;;;-147.86;100.00;40351.88;105870;1254;72434;-47
2024/03/28 02:49:17;;;;;;;21.70;14.00;;;;;;;-147.86;100.00;40448.14;105931;1254;61890;-43
2024/03/28 02:51:44;;;;;;;18.10;13.90;;;;;;;-147.86;100.00;40664.92;105871;1253;61330;-47
2024/03/28 02:54:11;;;;;;;27.60;15.30;;;;;;;-147.86;100.00;40974.47;105882;1253;73605;-47
2024/03/28 02:56:38;;;;;;;24.50;15.40;;;;;;;-147.86;100.00;41335.70;105887;1254;65185;-47
2024/03/28 02:59:05;;;;;;;25.00;16.00;;;;;;;-147.86;100.00;41709.11;106037;1254;72463;-48
2024/03/28 03:01:35;;;;;;;26.20;16.20;;;;;;;-147.86;100.00;42261.45;105876;1253;61248;-44
2024/03/28 03:04:02;;;;;;;25.80;16.10;;;;;;;-147.86;100.00;42657.26;105833;1253;61240;-46
2024/03/28 03:06:29;;;;;;;21.40;14.30;;;;;;;-147.86;100.00;43013.17;105896;1257;74661;-46
2024/03/28 03:08:56;;;;;;;23.30;14.60;;;;;;;-147.86;100.00;43251.24;105873;1254;65504;-50
2024/03/28 03:11:23;;;;;;;22.30;15.30;;;;;;;-147.86;100.00;43475.63;105900;1254;72377;-47
2024/03/28 03:13:50;;;;;;;21.40;14.30;;;;;;;-147.86;100.00;43692.18;105968;1254;61714;-51
2024/03/28 03:16:17;;;;;;;24.90;15.10;;;;;;;-147.86;100.00;43996.88;105862;1254;61343;-44
2024/03/28 03:18:43;;;;;;;21.30;14.80;;;;;;;-147.86;100.00;44364.27;105901;1256;74493;-47
2024/03/28 03:21:12;;;;;;;26.40;16.40;;;;;;;-147.86;100.00;44528.39;105892;1254;65380;-48
2024/03/28 03:23:46;;;;;;;26.70;16.10;;;;;;;-147.86;100.00;44658.45;105840;1257;73392;-47
2024/03/28 03:26:30;;;;;;;23.30;15.90;;;;;;;-147.86;100.00;44714.46;105697;1253;63094;-46
2024/03/28 03:37:35;;;;;;;23.30;16.10;;;;;;;-147.86;100.00;50178.15;102905;1291;603386;-46
2024/03/28 03:40:09;;;;;;;28.40;16.00;;;;;;;-147.86;100.00;41115.18;105167;1270;61953;-47
2024/03/28 03:42:36;;;;;;;29.80;17.30;;;;;;;-147.86;100.00;43066.84;105224;1264;60349;-47
2024/03/28 03:45:04;;;;;;;25.80;17.00;;;;;;;-147.86;100.00;43842.97;105217;1269;72978;-47
2024/03/28 03:47:37;;;;;;;29.60;18.00;;;;;;;-147.86;100.00;44062.68;105155;1270;65168;-46
2024/03/28 03:50:05;;;;;;;29.10;18.00;;;;;;;-147.86;100.00;44330.98;104953;1267;252011;-46
2024/03/28 03:52:33;;;;;;;32.00;19.60;;;;;;;-147.86;100.00;44618.49;105200;1267;61658;-45
2024/03/28 03:55:00;;;;;;;35.10;19.40;;;;;;;-147.86;100.00;45029.03;105248;1262;60060;-46
2024/03/28 03:57:27;;;;;;;32.30;18.90;;;;;;;-147.86;100.00;45421.59;105283;1266;73041;-45
2024/03/28 03:59:54;;;;;;;33.00;20.00;;;;;;;-147.86;100.00;45615.53;105198;1264;65247;-45
2024/03/28 04:02:21;;;;;;;34.50;20.60;;;;;;;-147.86;100.00;45886.68;105237;1268;72355;-50
2024/03/28 04:04:48;;;;;;;33.30;20.00;;;;;;;-147.86;100.00;46127.28;105183;1264;61958;-46
2024/03/28 04:07:15;;;;;;;34.70;21.00;;;;;;;-147.86;100.00;46379.26;105218;1267;60454;-45
2024/03/28 04:09:42;;;;;;;33.60;20.60;;;;;;;-147.86;100.00;46648.10;105603;1263;73913;-45
2024/03/28 04:12:09;;;;;;;32.30;20.50;;;;;;;-147.86;100.00;46793.90;105631;1260;64641;-46
2024/03/28 04:14:36;;;;;;;33.40;20.40;;;;;;;-147.86;100.00;46925.98;105619;1260;72476;-46
2024/03/28 04:17:08;;;;;;;38.20;22.00;;;;;;;-147.86;100.00;46915.01;105587;1257;61963;-44
2024/03/28 04:19:34;;;;;;;36.10;22.60;;;;;;;-147.86;100.00;47052.59;105634;1258;60793;-46
2024/03/28 04:22:01;;;;;;;34.30;22.00;;;;;;;-147.86;100.00;47155.67;105616;1260;73796;-47
2024/03/28 04:24:28;;;;;;;32.10;21.10;;;;;;;-147.86;100.00;47178.01;105628;1261;64744;-49
2024/03/28 04:26:55;;;;;;;37.10;21.80;;;;;;;-147.86;100.00;47242.30;105628;1260;72646;-46
2024/03/28 04:29:22;;;;;;;33.70;21.40;;;;;;;-147.86;100.00;47241.51;105707;1260;60519;-46
2024/03/28 04:31:50;;;;;;;36.10;22.00;;;;;;;-147.86;100.00;47360.68;105663;1260;60488;-45
2024/03/28 04:34:17;;;;;;;35.00;21.30;;;;;;;-147.86;100.00;47621.75;105609;1259;74313;-45
2024/03/28 04:36:44;;;;;;;33.70;21.50;;;;;;;-147.86;100.00;47643.70;105601;1260;64655;-47
2024/03/28 04:39:14;;;;;;;33.80;20.80;;;;;;;-147.86;100.00;47811.10;105595;1261;72643;-47
2024/03/28 04:41:41;;;;;;;32.50;21.60;;;;;;;-147.86;100.00;47749.55;105655;1257;60498;-44
2024/03/28 04:44:08;;;;;;;36.90;21.70;;;;;;;-147.86;100.00;47976.54;105657;1257;60469;-46
2024/03/28 04:46:35;;;;;;;32.90;20.50;;;;;;;-147.86;100.00;48101.99;105613;1259;73866;-44
2024/03/28 04:49:03;;;;;;;31.60;20.70;;;;;;;-147.86;100.00;48094.93;105657;1261;65331;-45
2024/03/28 04:51:30;;;;;;;31.90;21.40;;;;;;;-147.86;100.00;48030.64;105630;1261;72670;-47
2024/03/28 04:53:58;;;;;;;33.00;22.30;;;;;;;-147.86;100.00;47826.78;105568;1260;60357;-47
2024/03/28 04:56:25;;;;;;;37.40;21.60;;;;;;;-147.86;100.00;47660.55;105623;1258;60399;-47
2024/03/28 04:58:52;;;;;;;33.20;21.80;;;;;;;-147.86;100.00;47457.10;105651;1260;73513;-47
2024/03/28 05:01:19;;;;;;;33.40;21.60;;;;;;;-147.86;100.00;47174.48;105608;1260;65388;-44
2024/03/28 05:03:48;;;;;;;33.20;20.80;;;;;;;-147.86;100.00;47087.86;105614;1257;72718;-46
2024/03/28 05:06:15;;;;;;;33.20;20.70;;;;;;;-147.86;100.00;46951.85;105613;1260;61914;-48
2024/03/28 05:08:42;;;;;;;31.20;21.60;;;;;;;-147.86;100.00;46664.18;105627;1259;60454;-46
2024/03/28 05:11:09;;;;;;;34.20;22.20;;;;;;;-147.86;100.00;46443.92;105613;1260;73656;-47
2024/03/28 05:13:36;;;;;;;34.40;21.70;;;;;;;-147.86;100.00;46268.35;105597;1258;65452;-46
2024/03/28 05:16:03;;;;;;;34.70;21.60;;;;;;;-147.86;100.00;46090.05;105628;1260;72392;-46
2024/03/28 05:18:30;;;;;;;34.20;21.40;;;;;;;-147.86;100.00;45949.37;105643;1257;61798;-47
2024/03/28 05:20:57;;;;;;;35.80;21.50;;;;;;;-147.86;100.00;45735.82;105655;1257;60475;-44
2024/03/28 05:23:24;;;;;;;32.60;21.00;;;;;;;-147.86;100.00;45511.71;105633;1258;73859;-47
2024/03/28 05:25:51;;;;;;;33.70;23.40;;;;;;;-147.86;100.00;45474.48;105618;1260;65538;-48
2024/03/28 05:28:17;;;;;;;31.90;21.70;;;;;;;-147.86;100.00;45445.88;105655;1258;72786;-44
2024/03/28 05:30:44;;;;;;;34.90;22.40;;;;;;;-147.86;100.00;45390.64;105561;1258;61816;-46
2024/03/28 05:33:11;;;;;;;32.00;22.10;;;;;;;-147.86;100.00;45341.66;105625;1257;60453;-46
2024/03/28 05:35:40;;;;;;;34.60;21.20;;;;;;;-147.86;100.00;45235.88;105643;1257;73700;-46
2024/03/28 05:38:07;;;;;;;29.80;19.70;;;;;;;-147.86;100.00;45172.41;105631;1260;65571;-49
2024/03/28 05:40:33;;;;;;;34.30;20.30;;;;;;;-147.86;100.00;44950.68;105577;1257;72533;-47
2024/03/28 05:43:00;;;;;;;29.00;19.60;;;;;;;-147.86;100.00;44886.43;105624;1258;61955;-48
2024/03/28 05:45:27;;;;;;;30.80;18.90;;;;;;;-147.86;100.00;44676.47;105607;1257;60450;-46
2024/03/28 05:47:54;;;;;;;27.20;18.30;;;;;;;-147.86;100.00;44571.88;105670;1256;73839;-50
2024/03/28 05:50:21;;;;;;;27.80;18.20;;;;;;;-147.86;100.00;44369.76;105667;1260;64007;-45
2024/03/28 05:52:47;;;;;;;28.50;18.40;;;;;;;-147.86;100.00;44014.12;105614;1257;72334;-44
2024/03/28 05:55:14;;;;;;;29.00;18.50;;;;;;;-147.86;100.00;43515.57;105647;1258;61972;-46
2024/03/28 05:57:41;;;;;;;26.30;16.70;;;;;;;-147.86;100.00;42954.84;105601;1256;60408;-50
2024/03/28 06:00:10;;;;;;;28.30;17.10;;;;;;;-147.86;100.00;42249.34;105592;1260;73588;-48
2024/03/28 06:02:40;;;;;;;26.40;17.20;;;;;;;-147.86;100.00;41250.03;105608;1261;64726;-49
2024/03/28 06:05:07;;;;;;;26.80;17.40;;;;;;;-147.86;100.00;39954.39;105621;1257;72557;-45
2024/03/28 06:07:34;;;;;;;26.20;16.60;;;;;;;-147.86;100.00;38511.73;105591;1260;60985;-47
2024/03/28 06:10:00;;;;;;;26.20;16.30;;;;;;;-147.86;100.00;36903.44;105654;1261;60408;-48
2024/03/28 06:12:28;;;;;;;24.10;14.80;;;;;;;-147.86;100.00;35147.72;105646;1257;73764;-45
2024/03/28 06:14:54;;;;;;;28.10;14.50;;;;;;;-147.86;100.00;33103.77;105619;1260;64715;-51
2024/03/28 06:17:21;;;;;;;21.00;14.10;;;;;;;-147.86;100.00;30507.79;105583;1258;72510;-47
2024/03/28 06:19:48;;;;;;;21.10;14.60;;;;;;;-147.86;100.00;27272.05;105566;1260;60428;-46
2024/03/28 06:22:18;;;;;;;19.00;13.40;;;;;;;-147.86;100.00;22593.74;105622;1258;60428;-46
2024/03/28 06:24:45;;;;;;;17.80;12.60;;;;;;;-147.86;100.00;17236.03;105578;1256;73869;-48
2024/03/28 06:27:12;;;;;;;20.40;13.50;;;;;;;-147.86;100.00;14633.50;105901;1254;64624;-50
2024/03/28 06:29:49;;;;;;;20.30;14.10;;;;;;;-147.86;100.00;14325.87;105913;1255;72575;-45
2024/03/28 06:32:24;;;;;;;22.40;14.00;;;;;;;-147.86;100.00;13699.45;105912;1252;60415;-46
2024/03/28 06:34:54;;;;;;;21.70;13.80;;;;;;;-147.86;100.00;13222.22;105914;1252;61328;-48
2024/03/28 06:37:21;;;;;;;18.90;11.30;;;;;;;-147.86;100.00;12602.81;105906;1252;75567;-45
2024/03/28 06:39:51;;;;;;;17.60;12.00;;;;;;;-147.86;100.00;11463.06;105919;1256;65574;-46
2024/03/28 06:42:18;;;;;;;19.20;13.30;;;;;;;-147.86;100.00;9190.37;105853;1253;71611;-51
2024/03/28 06:44:47;;;;;;;21.90;13.20;;;;;;;-147.86;100.00;6219.03;105897;1256;61663;-47
2024/03/28 06:47:14;;;;;;;17.70;11.10;;;;;;;-147.86;100.00;1841.91;105835;1253;60459;-50
2024/03/28 06:49:42;;;;;;;14.20;10.00;;;;;;;-147.86;100.00;-2157.54;105856;1256;73887;-53
2024/03/28 06:52:09;;;;;;;13.20;9.80;;;;;;;-147.86;100.00;-7088.77;105683;1253;64414;-51
2024/03/28 06:54:36;;;;;;;16.30;10.80;;;;;;;-147.86;100.00;-12206.32;105764;1254;72852;-51
2024/03/28 06:57:04;;;;;;;12.10;9.60;;;;;;;-147.86;100.00;-15874.57;105923;1257;60393;-47
2024/03/28 06:59:32;;;;;;;13.10;10.00;;;;;;;-147.86;100.00;-16468.03;105904;1254;60450;-47
2024/03/28 07:01:58;;;;;;;11.00;8.90;;;;;;;-147.86;100.00;-17167.47;105851;1256;73794;-47
2024/03/28 07:04:25;;;;;;;10.40;8.20;;;;;;;-147.86;100.00;-17609.17;105878;1257;64642;-47
2024/03/28 07:06:54;;;;;;;12.20;8.70;;;;;;;-147.86;100.00;-17609.17;105870;1254;72651;-46
2024/03/28 07:09:21;;;;;;;11.30;8.40;;;;;;;-147.86;100.00;-17609.17;105896;1256;61674;-45
2024/03/28 07:11:48;;;;;;;11.40;9.10;;;;;;;-147.86;100.00;-17609.17;105867;1253;60549;-49
2024/03/28 07:14:18;;;;;;;14.90;8.60;;;;;;;-147.86;100.00;-17609.17;105909;1254;73755;-49
2024/03/28 07:16:45;;;;;;;11.40;8.90;;;;;;;-147.86;100.00;-17609.17;105885;1257;66095;-48
2024/03/28 07:19:12;;;;;;;10.70;8.30;;;;;;;-147.86;100.00;-17609.17;105905;1257;74253;-47
2024/03/28 07:21:39;;;;;;;10.90;8.10;;;;;;;-147.86;100.00;-17609.17;105873;1256;60672;-50
2024/03/28 07:24:06;;;;;;;14.40;9.20;;;;;;;-147.86;100.00;-17609.17;105920;1253;61920;-46
2024/03/28 07:26:36;;;;;;;13.80;8.60;;;;;;;-147.86;100.00;-17609.17;105677;1259;74888;-47
2024/03/28 07:29:03;;;;;;;16.50;8.30;;;;;;;-147.86;100.00;-17404.54;105873;1257;66983;-49
2024/03/28 07:31:31;;;;;;;17.80;7.60;;;;;;;-147.86;100.00;-14964.68;105914;1257;73810;-49
2024/03/28 07:33:57;;;;;;;15.50;7.60;;;;;;;-147.86;100.00;-15497.76;105911;1256;61492;-46
2024/03/28 07:36:24;;;;;;;11.00;6.70;;;;;;;-147.86;100.00;-16518.57;105930;1254;60459;-46
2024/03/28 07:38:52;;;;;;;10.50;6.00;;;;;;;-147.86;100.00;-17354.92;105845;1254;75023;-48
2024/03/28 07:41:19;;;;;;;15.90;6.10;;;;;;;-147.86;100.00;-17609.17;105891;1257;65605;-48
2024/03/28 07:43:46;;;;;;;11.60;6.00;;;;;;;-147.86;100.00;-17609.17;105905;1254;72585;-45
2024/03/28 07:46:13;;;;;;;11.10;6.30;;;;;;;-147.86;100.00;-17609.17;105907;1254;61709;-47
2024/03/28 07:48:40;;;;;;;8.70;5.90;;;;;;;-147.86;100.00;-17609.17;105891;1253;61409;-51
2024/03/28 07:51:07;;;;;;;7.60;6.10;;;;;;;-147.86;100.00;-17609.17;105908;1256;75809;-51
2024/03/28 07:53:34;;;;;;;8.30;6.10;;;;;;;-147.86;100.00;-17609.17;105935;1257;64587;-50
2024/03/28 07:56:00;;;;;;;11.50;6.30;;;;;;;-147.86;100.00;-17609.17;105889;1254;73984;-45
2024/03/28 07:58:30;;;;;;;8.60;6.30;;;;;;;-147.86;100.00;-17609.17;105870;1256;61163;-50
2024/03/28 08:01:07;;;;;;;15.00;7.10;;;;;;;-147.86;100.00;-17609.17;105892;1254;61730;-51
2024/03/28 08:03:35;;;;;;;10.30;6.60;;;;;;;-147.86;100.00;-17609.17;105879;1255;76008;-49
2024/03/28 08:06:03;;;;;;;8.00;6.10;;;;;;;-147.86;100.00;-17609.17;105930;1257;66842;-51
2024/03/28 08:08:30;;;;;;;9.70;7.30;;;;;;;-147.86;100.00;-17609.17;105890;1254;74135;-50
2024/03/28 08:10:58;;;;;;;8.70;6.90;;;;;;;-147.86;100.00;-17609.17;105926;1252;61368;-50
2024/03/28 08:13:25;;;;;;;7.80;5.30;;;;;;;-147.86;100.00;-17609.17;105729;1254;61219;-46
2024/03/28 08:15:52;;;;;;;7.90;4.60;;;;;;;-147.86;100.00;-17609.17;105887;1254;76004;-48
2024/03/28 08:18:20;;;;;;;5.80;4.70;;;;;;;-147.86;100.00;-17609.17;105849;1256;64985;-51
2024/03/28 08:20:47;;;;;;;4.40;3.90;;;;;;;-147.86;100.00;-17608.59;105917;1254;74075;-48
2024/03/28 08:23:14;;;;;;;3.90;3.40;;;;;;;-147.86;100.00;-16719.42;105887;1254;61439;-49
2024/03/28 08:25:41;;;;;;;10.50;3.00;;;;;;;-147.86;99.64;-12125.96;105861;1252;61497;-47
2024/03/28 08:28:10;;;;;;;3.10;2.60;;;;;;;-147.86;98.99;-2875.16;105890;1254;74792;-54
2024/03/28 08:30:37;;;;;;;5.90;3.00;;;;;;;-147.86;100.00;-1389.23;105884;1253;66770;-54
2024/03/28 08:33:04;;;;;;;2.90;2.70;;;;;;;-147.86;99.67;742.19;105916;1254;73769;-47
2024/03/28 08:35:33;;;;;;;2.80;2.50;;;;;;;-147.86;98.54;4710.53;105992;1253;61530;-50
2024/03/28 08:38:00;;;;;;;2.70;2.50;;;;;;;-147.86;96.08;9577.37;105910;1253;61218;-46
2024/03/28 08:40:26;;;;;;;4.70;2.60;;;;;;;-147.86;93.53;15594.97;105899;1253;75852;-46
2024/03/28 08:42:54;;;;;;;3.60;2.50;;;;;;;-147.86;89.90;24265.04;105888;1256;66060;-44
2024/03/28 08:45:21;;;;;;;3.10;2.90;;;;;;;-147.86;91.63;32524.29;105907;1254;72768;-52
2024/03/28 08:47:47;;;;;;;3.70;2.50;;;;;;;-147.86;92.56;36575.04;105916;1257;61161;-51
2024/03/28 08:50:15;;;;;;;5.00;2.20;;;;;;;-147.86;92.31;38956.85;105923;1253;61262;-51
2024/03/28 08:52:41;;;;;;;2.60;2.50;;;;;;;-147.86;93.34;41115.37;105936;1254;76056;-52
2024/03/28 08:55:11;;;;;;;3.50;2.60;;;;;;;-147.86;94.75;41501.66;105921;1257;66044;-45
2024/03/28 08:57:40;;;;;;;2.70;2.40;;;;;;;-147.86;95.94;41123.97;105937;1253;74524;-51
2024/03/28 09:00:11;;;;;;;2.30;2.20;;;;;;;-147.86;96.49;39995.82;105918;1256;61569;-45
2024/03/28 09:02:38;;;;;;;6.10;2.80;;;;;;;-147.86;96.10;39741.11;105892;1254;61343;-51
2024/03/28 09:05:05;;;;;;;2.40;2.20;;;;;;;-147.86;96.60;39097.99;105894;1252;75865;-50
2024/03/28 09:07:33;;;;;;;5.10;2.10;;;;;;;-147.86;96.01;37995.05;105933;1256;65822;-48
2024/03/28 09:10:00;;;;;;;2.10;2.00;;;;;;;-147.86;95.10;38712.30;105892;1254;74142;-49
2024/03/28 09:12:27;;;;;;;3.40;2.50;;;;;;;-147.86;92.46;40213.79;105903;1257;61251;-46
2024/03/28 09:14:55;;;;;;;3.70;2.30;;;;;;;-147.86;90.08;42685.90;105878;1254;61644;-49
2024/03/28 09:17:21;;;;;;;5.30;4.00;;;;;;;-147.86;89.02;44725.84;105873;1252;76029;-46
2024/03/28 09:19:55;;;;;;;9.10;6.30;;;;;;;-147.86;89.16;45800.09;105939;1257;65609;-48
2024/03/28 09:22:22;;;;;;;4.80;3.00;;;;;;;-147.86;88.88;46696.70;105923;1254;72801;-52
2024/03/28 09:24:48;;;;;;;4.40;3.00;;;;;;;-147.86;89.96;47175.27;105929;1256;61631;-49
2024/03/28 09:27:16;;;;;;;3.10;2.90;;;;;;;-147.86;90.35;48031.85;105875;1253;61224;-48
2024/03/28 09:29:44;;;;;;;4.10;3.10;;;;;;;-147.86;90.27;49068.55;105912;1255;75849;-49
2024/03/28 09:32:12;;;;;;;3.50;3.20;;;;;;;-147.86;90.99;49411.70;105949;1254;62833;-51
2024/03/28 09:34:39;;;;;;;8.40;2.90;;;;;;;-147.86;92.35;49587.80;105910;1253;72812;-52
2024/03/28 09:37:07;;;;;;;7.60;2.90;;;;;;;-147.86;93.20;49554.85;105903;1257;61434;-52
2024/03/28 09:39:34;;;;;;;3.30;2.70;;;;;;;-147.86;93.52;49376.41;105925;1253;61537;-46
2024/03/28 09:42:06;;;;;;;4.50;2.50;;;;;;;-147.86;92.74;49235.22;105920;1254;75765;-47
2024/03/28 09:44:35;;;;;;;4.80;2.90;;;;;;;-147.86;87.61;49377.58;105937;1256;65796;-48
2024/03/28 09:47:03;;;;;;;4.30;2.40;;;;;;;-147.86;85.03;49861.97;105700;1254;73023;-48
2024/03/28 09:49:30;;;;;;;3.10;2.20;;;;;;;-147.86;85.87;50182.82;105919;1253;61135;-49
2024/03/28 09:51:58;;;;;;;1.90;1.70;;;;;;;-147.86;84.65;50313.07;105668;1253;61745;-50
2024/03/28 09:54:26;;;;;;;5.10;1.70;;;;;;;-147.86;83.68;50454.68;105926;1256;75702;-49
2024/03/28 09:56:54;;;;;;;3.10;1.90;;;;;;;-147.86;80.11;50588.06;105964;1256;64947;-48
2024/03/28 09:59:21;;;;;;;14.00;2.10;;;;;;;-147.86;77.59;50775.98;105917;1254;74023;-49
2024/03/28 10:01:49;;;;;;;18.80;2.20;;;;;;;-147.86;75.44;50921.15;105892;1252;61376;-54
2024/03/28 10:04:17;;;;;;;3.40;1.30;;;;;;;-147.86;76.69;51035.32;105707;1252;61438;-52
2024/03/28 10:06:48;;;;;;;2.20;1.50;;;;;;;-147.86;73.67;51126.35;105958;1253;73721;-54
2024/03/28 10:09:15;;;;;;;8.90;1.60;;;;;;;-147.86;69.46;51255.44;105951;1257;66609;-48
2024/03/28 10:11:42;;;;;;;7.20;1.30;;;;;;;-147.86;67.99;51391.99;105921;1253;72721;-49
2024/03/28 10:14:22;;;;;;;7.70;1.20;;;;;;;-147.86;63.91;51483.02;105910;1252;61214;-54
2024/03/28 10:16:49;;;;;;;2.20;1.00;;;;;;;-147.86;58.71;51484.98;105915;1254;61594;-51
2024/03/28 10:19:21;;;;;;;1.50;1.00;;;;;;;-147.86;54.62;51412.39;105951;1256;74951;-47
2024/03/28 10:21:49;;;;;;;4.70;0.70;;;;;;;-147.86;53.57;51342.55;105921;1253;65953;-46
2024/03/28 10:24:17;;;;;;;0.90;0.90;;;;;;;-147.86;52.85;51335.48;105920;1254;73916;-48
2024/03/28 10:26:45;;;;;;;3.30;0.90;;;;;;;-147.86;51.21;51344.51;105899;1256;61825;-52
2024/03/28 10:29:12;;;;;;;1.10;0.90;;;;;;;-147.86;48.85;51224.83;105887;1252;61382;-49
2024/03/28 10:31:42;;;;;;;2.30;0.90;;;;;;;-147.86;48.80;51220.91;105919;1256;74770;-51
2024/03/28 10:34:15;;;;;;;2.20;0.70;;;;;;;-147.86;49.23;51273.09;105884;1256;64834;-50
2024/03/28 10:36:47;;;;;;;8.70;1.40;;;;;;;-147.86;45.87;51308.02;105912;1253;74006;-47
2024/03/28 10:39:15;;;;;;;7.00;1.40;;;;;;;-147.86;42.59;51221.70;105902;1256;61428;-50
2024/03/28 10:41:41;;;;;;;10.20;1.10;;;;;;;-147.86;39.82;51112.62;105736;1254;61532;-51
2024/03/28 10:44:09;;;;;;;3.60;1.00;;;;;;;-147.86;38.74;50985.49;105678;1258;75894;-51
2024/03/28 10:46:39;;;;;;;1.60;0.90;;;;;;;-147.86;37.29;50871.71;105882;1252;65144;-47
2024/03/28 10:49:06;;;;;;;3.00;1.10;;;;;;;-147.86;36.07;50723.41;105952;1254;73853;-46
2024/03/28 10:51:42;;;;;;;6.40;0.90;;;;;;;-147.86;36.81;50680.26;105676;1254;61308;-55
2024/03/28 10:54:35;;;;;;;6.20;1.10;;;;;;;-147.86;38.10;50690.85;105930;1254;61363;-49
2024/03/28 10:57:04;;;;;;;3.80;1.40;;;;;;;-147.86;38.31;50754.01;105906;1256;75102;-53
2024/03/28 10:59:33;;;;;;;2.50;0.90;;;;;;;-147.86;38.77;50836.79;105937;1254;65596;-52
2024/03/28 11:02:02;;;;;;;2.10;1.10;;;;;;;-147.86;38.03;50892.51;105905;1254;71803;-50